OIAI  Shahid Asyaee  Airport

Iran

Add Bookmark
ICAO OIAI
Type Airport
Status Operational
Latitude
32° 0' 8" N
32.002399
Longitude
49° 16' 13" E
49.270401
Local (GMT +3.5 ) UTC
Sep 29, 2016 03:21 am Sep 28, 2016 23:51
Sunrise-Sunset Local UTC
Begin Civil Twilight 05:40 am 02:10
Sunrise 06:04 am 02:34
Sunset 06:01 pm 14:31
End Civil Twilight 06:25 pm 14:55
VFR
VFR
MVFR
MVFR
IFR
IFR
LIFR
LIFR
Unknown
Unavailable

Current Weather

METAR Observed VFR
OIAI 282000Z 23002KT CAVOK 31/05 Q1009 Wed, Sep 28, 2016 @ 20:00 UTC
(3 Hours, 51 Minutes ago)
Visual Flight Rules
Wind Visibility Conditions
230° at 2 knots (4 kph) 10 km or more
  • No significant weather
Temperatures Readings Precipitation
Current Temp
31°C
88°F
Dewpoint
5°C
41°F
Humidity 19%
Altimeter 29.79" Hg
Sea Level Pressure 1,009 mb
Field Elevation
372 m
1,220 ft
None Recorded

Additional weather within a 92.6km radius of OIAI

Map ICAO Location
OIAW 88.2km S/SW (213°)
VFR
VFR
MVFR
MVFR
IFR
IFR
LIFR
LIFR
Unknown
Unavailable
-
-

CheckWX.com is intended as a tool to help pilots better visualize weather data. It is not intended as a substitute for an official weather briefing obtained from a Flight Service Station. CheckWX.com does not meet the FAA requirements for an official pre-flight weather briefing. Therefore, it's important that pilots still call and obtain an official FSS pre-flight weather briefing.

© 2007-2016 CheckWX.com
23:51:19 UTC